createdAt,value
2022-09-04T00:00:33.350Z,19.20
2022-09-04T00:04:43.258Z,19.20
2022-09-04T00:09:01.988Z,19.20
2022-09-04T00:13:39.254Z,19.10
2022-09-04T00:17:53.692Z,19.00
2022-09-04T00:22:01.807Z,18.80
2022-09-04T00:26:10.524Z,18.80
2022-09-04T00:30:21.463Z,18.70
2022-09-04T00:35:16.035Z,18.70
2022-09-04T00:39:24.253Z,18.70
2022-09-04T00:43:30.031Z,18.70
2022-09-04T00:47:57.483Z,18.70
2022-09-04T00:52:16.557Z,18.70
2022-09-04T00:56:49.771Z,18.70
2022-09-04T01:00:56.973Z,18.80
2022-09-04T01:05:28.430Z,18.80
2022-09-04T01:09:57.038Z,18.80
2022-09-04T01:14:20.717Z,18.80
2022-09-04T01:18:34.469Z,18.80
2022-09-04T01:23:03.196Z,18.80
2022-09-04T01:27:13.571Z,18.80
2022-09-04T01:31:50.590Z,18.70
2022-09-04T01:36:38.227Z,18.60
2022-09-04T01:40:44.867Z,18.50
2022-09-04T01:44:48.741Z,18.50
2022-09-04T01:49:09.520Z,18.60
2022-09-04T01:53:24.740Z,18.50
2022-09-04T01:57:49.415Z,18.50
2022-09-04T02:02:21.504Z,18.40
2022-09-04T02:06:40.537Z,18.50
2022-09-04T02:10:46.419Z,18.50
2022-09-04T02:15:06.639Z,18.50
2022-09-04T02:19:26.020Z,18.50
2022-09-04T02:23:52.209Z,18.50
2022-09-04T02:28:00.818Z,18.50
2022-09-04T02:32:30.154Z,18.50
2022-09-04T02:37:03.241Z,18.50
2022-09-04T02:41:11.833Z,18.50
2022-09-04T02:45:49.178Z,18.50
2022-09-04T02:50:14.875Z,18.50
2022-09-04T02:54:43.974Z,18.40
2022-09-04T02:59:00.491Z,18.40
2022-09-04T03:03:03.417Z,18.40
2022-09-04T03:07:27.066Z,18.30
2022-09-04T03:11:52.842Z,18.40
2022-09-04T03:16:19.412Z,18.40
2022-09-04T03:20:51.455Z,18.30
2022-09-04T03:25:12.084Z,18.30
2022-09-04T03:29:15.370Z,18.30
2022-09-04T03:33:29.710Z,18.30
2022-09-04T03:37:54.234Z,18.20
2022-09-04T03:42:00.702Z,18.20
2022-09-04T03:46:26.161Z,18.10
2022-09-04T03:50:43.848Z,18.10
2022-09-04T03:55:11.518Z,18.10
2022-09-04T03:59:38.097Z,18.10
2022-09-04T04:04:02.652Z,18.10
2022-09-04T04:08:14.294Z,18.10
2022-09-04T04:12:42.791Z,18.10
2022-09-04T04:17:23.244Z,18.10
2022-09-04T04:21:54.711Z,18.10
2022-09-04T04:26:03.496Z,18.00
2022-09-04T04:30:24.697Z,18.00
2022-09-04T04:34:40.173Z,18.00
2022-09-04T04:39:01.405Z,18.00
2022-09-04T04:43:22.280Z,17.90
2022-09-04T04:48:03.103Z,17.90
2022-09-04T04:52:41.194Z,18.00
2022-09-04T04:56:53.506Z,18.00
2022-09-04T05:01:07.554Z,18.00
2022-09-04T05:05:47.504Z,18.00
2022-09-04T05:09:50.691Z,18.10
2022-09-04T05:14:17.651Z,18.20
2022-09-04T05:18:29.899Z,18.30
2022-09-04T05:23:05.844Z,18.40
2022-09-04T05:27:24.110Z,18.50
2022-09-04T05:31:33.078Z,18.50
2022-09-04T05:36:05.288Z,18.50
2022-09-04T05:40:43.431Z,18.60
2022-09-04T05:44:46.235Z,18.60
2022-09-04T05:49:20.635Z,18.60
2022-09-04T05:53:44.706Z,18.70
2022-09-04T05:58:08.492Z,18.70
2022-09-04T06:02:30.157Z,18.80
2022-09-04T06:06:57.702Z,18.80
2022-09-04T06:11:49.857Z,18.90
2022-09-04T06:15:57.933Z,19.00
2022-09-04T06:20:34.084Z,19.10
2022-09-04T06:24:36.796Z,19.10
2022-09-04T06:28:56.536Z,19.10
2022-09-04T06:33:53.523Z,19.10
2022-09-04T06:38:11.298Z,19.20
2022-09-04T06:42:29.902Z,19.30
2022-09-04T06:47:00.655Z,19.40
2022-09-04T06:51:13.031Z,19.50
2022-09-04T06:55:28.644Z,19.40
2022-09-04T06:59:45.900Z,19.50
2022-09-04T07:04:00.726Z,19.50
2022-09-04T07:08:25.873Z,19.60
2022-09-04T07:12:34.733Z,19.50
2022-09-04T07:17:07.858Z,19.50
2022-09-04T07:21:54.711Z,19.60
2022-09-04T07:26:23.128Z,19.60
2022-09-04T07:30:35.370Z,19.50
2022-09-04T07:34:44.693Z,19.40
2022-09-04T07:39:22.846Z,19.40
2022-09-04T07:43:51.442Z,19.50
2022-09-04T07:48:15.693Z,19.50
2022-09-04T07:52:43.849Z,19.70
2022-09-04T07:57:28.336Z,19.80
2022-09-04T08:01:50.284Z,20.00
2022-09-04T08:06:17.606Z,20.20
2022-09-04T08:10:26.502Z,20.40
2022-09-04T08:14:37.820Z,20.60
2022-09-04T08:19:01.737Z,21.10
2022-09-04T08:23:16.556Z,21.60
2022-09-04T08:27:26.410Z,22.00
2022-09-04T08:31:47.517Z,22.50
2022-09-04T08:36:01.962Z,22.90
2022-09-04T08:40:33.406Z,23.30
2022-09-04T08:45:15.479Z,23.60
2022-09-04T08:49:37.082Z,24.00
2022-09-04T08:53:45.967Z,24.30
2022-09-04T08:58:16.266Z,24.50
2022-09-04T09:02:22.350Z,24.60
2022-09-04T09:06:47.307Z,24.90
2022-09-04T09:11:11.980Z,25.00
2022-09-04T09:15:39.712Z,25.00
2022-09-04T09:20:42.259Z,25.00
2022-09-04T09:25:30.163Z,25.20
2022-09-04T09:29:35.894Z,25.40
2022-09-04T09:34:03.540Z,25.70
2022-09-04T09:38:35.369Z,25.90
2022-09-04T09:42:48.466Z,25.90
2022-09-04T09:47:36.521Z,26.10
2022-09-04T09:52:06.734Z,26.40
2022-09-04T09:56:46.645Z,26.70
2022-09-04T10:01:03.335Z,26.90
2022-09-04T10:05:42.462Z,27.20
2022-09-04T10:10:03.400Z,27.50
2022-09-04T10:14:38.757Z,27.80
2022-09-04T10:19:04.186Z,28.10
2022-09-04T10:23:25.784Z,28.30
2022-09-04T10:27:47.288Z,28.40
2022-09-04T10:32:23.880Z,28.50
2022-09-04T10:37:06.218Z,28.70
2022-09-04T10:42:04.235Z,28.70
2022-09-04T10:46:23.360Z,29.00
2022-09-04T10:50:57.499Z,29.10
2022-09-04T10:55:31.433Z,29.10
2022-09-04T11:00:08.924Z,29.30
2022-09-04T11:04:30.645Z,29.40
2022-09-04T11:08:55.533Z,29.50
2022-09-04T11:13:48.129Z,29.50
2022-09-04T11:18:12.115Z,29.60
2022-09-04T11:22:48.376Z,30.00
2022-09-04T11:27:10.020Z,30.00
2022-09-04T11:31:53.121Z,30.00
2022-09-04T11:36:09.073Z,30.00
2022-09-04T11:40:23.768Z,30.10
2022-09-04T11:44:49.166Z,30.10
2022-09-04T11:49:32.133Z,29.90
2022-09-04T11:54:00.408Z,29.50
2022-09-04T11:58:21.350Z,29.10
2022-09-04T12:02:32.990Z,29.00
2022-09-04T12:07:22.785Z,28.90
2022-09-04T12:11:44.240Z,28.80
2022-09-04T12:15:55.282Z,28.60
2022-09-04T12:20:10.833Z,28.40
2022-09-04T12:24:37.662Z,28.30
2022-09-04T12:29:05.458Z,28.20
2022-09-04T12:33:11.595Z,28.10
2022-09-04T12:37:46.104Z,28.10
2022-09-04T12:42:14.900Z,28.10
2022-09-04T12:46:56.000Z,28.10
2022-09-04T12:51:24.666Z,28.20
2022-09-04T12:56:10.535Z,28.30
2022-09-04T13:00:17.582Z,28.30
2022-09-04T13:04:38.882Z,28.40
2022-09-04T13:08:41.756Z,28.50
2022-09-04T13:13:22.453Z,28.70
2022-09-04T13:17:43.608Z,28.80
2022-09-04T13:22:18.699Z,29.00
2022-09-04T13:26:46.193Z,29.30
2022-09-04T13:31:33.619Z,29.20
2022-09-04T13:36:16.511Z,29.40
2022-09-04T13:40:43.485Z,29.50
2022-09-04T13:45:02.182Z,29.50
2022-09-04T13:49:18.444Z,29.50
2022-09-04T13:53:28.535Z,29.50
2022-09-04T13:57:43.415Z,29.50
2022-09-04T14:01:51.029Z,29.50
2022-09-04T14:05:54.417Z,29.60
2022-09-04T14:10:04.344Z,29.80
2022-09-04T14:14:25.830Z,29.90
2022-09-04T14:18:45.445Z,30.00
2022-09-04T14:23:14.609Z,30.30
2022-09-04T14:27:29.411Z,30.20
2022-09-04T14:32:06.769Z,30.30
2022-09-04T14:36:54.506Z,30.40
2022-09-04T14:41:02.700Z,30.50
2022-09-04T14:45:22.209Z,30.80
2022-09-04T14:49:32.106Z,30.90
2022-09-04T14:53:35.502Z,30.90
2022-09-04T14:57:44.554Z,30.90
2022-09-04T15:02:09.017Z,30.90
2022-09-04T15:06:24.701Z,31.00
2022-09-04T15:10:49.930Z,31.00
2022-09-04T15:15:18.586Z,31.00
2022-09-04T15:19:41.186Z,30.90
2022-09-04T15:24:09.211Z,30.90
2022-09-04T15:28:38.589Z,31.00
2022-09-04T15:32:42.775Z,31.10
2022-09-04T15:36:45.915Z,31.20
2022-09-04T15:41:16.216Z,31.10
2022-09-04T15:45:57.672Z,31.30
2022-09-04T15:50:04.908Z,31.40
2022-09-04T15:54:11.823Z,31.50
2022-09-04T15:58:33.254Z,31.50
2022-09-04T16:03:12.075Z,31.50
2022-09-04T16:07:40.417Z,31.80
2022-09-04T16:11:49.115Z,32.20
2022-09-04T16:16:03.996Z,32.80
2022-09-04T16:20:26.225Z,33.40
2022-09-04T16:24:47.429Z,33.70
2022-09-04T16:28:56.402Z,33.50
2022-09-04T16:33:01.292Z,32.90
2022-09-04T16:37:14.808Z,32.00
2022-09-04T16:41:20.340Z,31.30
2022-09-04T16:46:14.777Z,30.80
2022-09-04T16:50:42.365Z,30.30
2022-09-04T16:54:55.436Z,30.00
2022-09-04T16:59:27.893Z,29.70
2022-09-04T17:04:12.726Z,29.40
2022-09-04T17:08:48.024Z,29.00
2022-09-04T17:13:05.844Z,28.60
2022-09-04T17:17:30.562Z,28.40
2022-09-04T17:27:35.744Z,28.10
2022-09-04T17:29:08.243Z,28.00
2022-09-04T17:31:45.340Z,27.80
2022-09-04T17:40:34.001Z,27.70
2022-09-04T17:41:38.292Z,27.60
2022-09-04T17:45:35.649Z,27.50
2022-09-04T17:49:46.073Z,27.40
2022-09-04T17:53:58.743Z,27.30
2022-09-04T17:58:30.221Z,27.10
2022-09-04T18:02:54.170Z,27.00
2022-09-04T18:07:21.896Z,26.90
2022-09-04T18:12:00.266Z,26.90
2022-09-04T18:16:59.070Z,26.70
2022-09-04T18:21:28.444Z,26.50
2022-09-04T18:25:59.366Z,26.40
2022-09-04T18:36:35.440Z,26.30
2022-09-04T18:37:21.497Z,26.30
2022-09-04T18:39:40.826Z,26.10
2022-09-04T18:50:24.013Z,26.00
2022-09-04T18:51:03.139Z,25.70
2022-09-04T18:52:50.408Z,25.50
2022-09-04T18:57:00.464Z,25.30
2022-09-04T19:01:27.318Z,25.10
2022-09-04T19:05:44.921Z,24.90
2022-09-04T19:10:00.107Z,24.70
2022-09-04T19:14:15.491Z,24.50
2022-09-04T19:18:46.223Z,24.40
2022-09-04T19:22:53.608Z,24.30
2022-09-04T19:26:57.651Z,24.20
2022-09-04T19:31:11.037Z,24.20
2022-09-04T19:35:22.623Z,24.00
2022-09-04T19:46:06.570Z,24.00
2022-09-04T19:46:25.689Z,23.90
2022-09-04T19:51:47.789Z,23.80
2022-09-04T19:53:48.711Z,23.60
2022-09-04T19:58:15.168Z,23.50
2022-09-04T20:02:55.674Z,23.50
2022-09-04T20:07:06.817Z,23.40
2022-09-04T20:11:34.548Z,23.40
2022-09-04T20:15:43.860Z,23.30
2022-09-04T20:19:55.236Z,23.20
2022-09-04T20:24:10.978Z,23.10
2022-09-04T20:28:23.462Z,23.00
2022-09-04T20:32:48.112Z,23.00
2022-09-04T20:37:24.226Z,23.00
2022-09-04T20:41:48.915Z,23.00
2022-09-04T20:51:51.207Z,23.00
2022-09-04T20:52:59.185Z,23.00
2022-09-04T20:55:24.805Z,22.90
2022-09-04T21:03:12.923Z,22.80
2022-09-04T21:04:47.404Z,22.70
2022-09-04T21:09:20.925Z,22.70
2022-09-04T21:13:45.740Z,22.70
2022-09-04T21:17:57.894Z,22.70
2022-09-04T21:22:36.396Z,22.70
2022-09-04T21:26:57.961Z,22.80
2022-09-04T21:31:06.785Z,22.70
2022-09-04T21:35:41.063Z,22.70
2022-09-04T21:39:58.253Z,22.60
2022-09-04T21:44:29.499Z,22.50
2022-09-04T21:48:55.100Z,22.40
2022-09-04T21:53:00.966Z,22.40
2022-09-04T22:02:27.350Z,22.20
2022-09-04T22:10:14.082Z,22.10
2022-09-04T22:13:37.851Z,22.00
2022-09-04T22:16:35.478Z,22.00
2022-09-04T22:21:18.832Z,21.80
2022-09-04T22:25:24.594Z,21.70
2022-09-04T22:29:43.567Z,21.60
2022-09-04T22:34:27.552Z,21.60
2022-09-04T22:38:30.622Z,21.60
2022-09-04T22:43:09.944Z,21.60
2022-09-04T22:47:28.356Z,21.60
2022-09-04T22:51:37.668Z,21.50
2022-09-04T22:56:23.455Z,21.50
2022-09-04T23:00:25.767Z,21.50
2022-09-04T23:05:13.920Z,21.50
2022-09-04T23:13:51.848Z,21.50
2022-09-04T23:14:18.163Z,21.50
2022-09-04T23:20:35.821Z,21.30
2022-09-04T23:26:44.142Z,21.20
2022-09-04T23:28:37.974Z,21.20
2022-09-04T23:32:40.663Z,21.10
2022-09-04T23:36:49.897Z,21.10
2022-09-04T23:41:05.116Z,21.10
2022-09-04T23:45:29.845Z,21.20
2022-09-04T23:49:39.861Z,21.20
2022-09-04T23:54:24.652Z,21.10
2022-09-04T23:58:54.642Z,21.10
